首页
METAR-TAF:

METAR-TAF

机场 :

明尼阿波利斯-圣保罗国际机场

明尼阿波利斯, 明尼蘇達州, 美国

纬度: 44-52-59N, 经度: 093-13-44W, 海拔: 256米

当前天气观测

该预报发布于23分钟前的07:53 UTC
风速6节,风向西
温度 -7°C
湿度 73%
气压 1025 hPa
能見度: 12.9公里
阴天层高于2200英尺
小雪

METAR: KMSP 200753Z 28006KT 8SM -SN OVC022 M07/M11 A3026 RMK AO2 SLP262 P0000 T10671106

时间: 02:16 (08:16 UTC)

预报

该预报发布于20分钟前的07:56 UTC
预报有效从20日的 08点(UTC)到 21日的 12点(UTC)
风速5节,风向西转西北
能見度: 10公里
阴天层高于2200英尺
小雪
从 20日的 0900点(UTC)
风速5节,风向西转西北
能見度: 10公里
多云层高于2500英尺
小雪
从 20日的 1000点(UTC)
风速5节,风向北转西北
能見度: 10公里
散云层高于2500英尺
从 20日的 1400点(UTC)
风速7节,风向南转西南
能見度: 10公里
多云层高于15000英尺
从 20日的 1700点(UTC)
风速10节,风向西南,有时为18节阵风
能見度: 10公里
多云层高于2200英尺
阴天层高于6000英尺
附近有阵雨
从 21日的 0000点(UTC)
风速6节,风向西
能見度: 10公里
阴天层高于5000英尺
从 21日的 0300点(UTC)
风速5节,风向西转西北
能見度: 10公里
多云层高于5000英尺

TAF: KMSP 200756Z 2008/2112 29005KT P6SM -SN OVC022 FM200900 29005KT P6SM -SN BKN025 FM201000 33005KT P6SM SCT025 FM201400 20007KT P6SM BKN150 FM201700 23010G18KT P6SM VCSH BKN022 OVC060 FM210000 28006KT P6SM OVC050 FM210300 29005KT P6SM BKN050

超过4000个机场的气象观测和天气预报(METAR&TAF报告)。

可查询的气象台以黄色和红色小点在地图上表示。

将鼠标移到小点上方,可查看气象台名称。

然后点击查看天气观测和预报。

如需切换地图:点击带黑十字的绿色按钮放大地图;点击带横线的绿色按钮缩小地图;或者点击绿色箭头查看邻近地区的地图。


METAR-TAF: